Time;durP1;ratioP1;P1;durP2;ratioP2;P2;SDS_P1;SDS_P2;PMS_P1;PMS_P2;Temp;Humidity;BMP_temperature;BMP_pressure;BME280_temperature;BME280_humidity;BME280_pressure;Samples;Min_cycle;Max_cycle;Signal;HPM_P1;HPM_P2
2023/11/26 00:05:21;;;;;;;23.85;3.45;;;;;;;18.55;100.00;99130.84;10426324;28;20051;-88
2023/11/26 00:10:45;;;;;;;40.20;6.20;;;;;;;18.49;100.00;99148.91;10437707;28;20045;-89
2023/11/26 00:16:08;;;;;;;35.42;6.40;;;;;;;18.46;100.00;99173.94;10452027;28;20045;-89
2023/11/26 00:21:41;;;;;;;26.75;4.35;;;;;;;18.63;100.00;99182.19;10438404;28;20148;-88
2023/11/26 00:27:05;;;;;;;34.83;5.68;;;;;;;18.65;100.00;99144.66;10442167;28;20092;-89
2023/11/26 00:32:29;;;;;;;35.90;5.32;;;;;;;18.73;100.00;99157.72;10451596;28;20083;-88
2023/11/26 00:37:54;;;;;;;25.15;4.97;;;;;;;18.79;100.00;99134.25;10435739;28;20045;-89
2023/11/26 00:43:19;;;;;;;15.50;3.55;;;;;;;18.96;100.00;99131.72;10450321;28;20052;-87
2023/11/26 00:48:43;;;;;;;15.43;3.20;;;;;;;19.09;100.00;99121.34;10436367;28;20048;-88
2023/11/26 00:54:08;;;;;;;11.45;2.00;;;;;;;19.10;100.00;99121.22;10421324;28;20050;-88
2023/11/26 00:59:33;;;;;;;13.93;2.42;;;;;;;18.91;100.00;99146.19;10427428;28;20052;-85
2023/11/26 01:04:57;;;;;;;10.50;2.30;;;;;;;18.69;100.00;99152.50;10448157;28;20052;-88
2023/11/26 01:10:22;;;;;;;13.48;1.38;;;;;;;18.51;100.00;99153.25;10439014;28;20057;-87
2023/11/26 01:15:46;;;;;;;5.72;1.33;;;;;;;18.74;100.00;99171.03;10423978;28;20045;-88
2023/11/26 01:21:10;;;;;;;11.52;1.88;;;;;;;18.94;100.00;99178.16;10451441;28;20143;-88
2023/11/26 01:26:37;;;;;;;7.30;1.98;;;;;;;19.01;100.00;99191.22;10434630;28;20428;-87
2023/11/26 01:32:02;;;;;;;;;;;;;;;18.98;100.00;99194.00;10449599;28;20128;-86
2023/11/26 01:37:25;;;;;;;7.55;1.40;;;;;;;18.67;100.00;99177.56;10443310;28;19928;-86
2023/11/26 01:42:52;;;;;;;5.75;1.48;;;;;;;18.50;100.00;99199.63;10450099;28;20100;-87
2023/11/26 01:48:17;;;;;;;6.50;1.40;;;;;;;18.58;100.00;99202.00;10441898;28;20102;-86
2023/11/26 01:53:45;;;;;;;6.63;1.20;;;;;;;18.40;100.00;99200.06;10427630;28;20060;-85
2023/11/26 01:59:11;;;;;;;5.90;1.30;;;;;;;18.44;100.00;99201.69;10455943;28;20064;-86
2023/11/26 02:04:36;;;;;;;9.55;1.58;;;;;;;18.09;100.00;99225.34;10425927;28;20776;-87
2023/11/26 02:09:59;;;;;;;5.43;1.80;;;;;;;18.04;100.00;99226.47;10435619;28;20512;-88
2023/11/26 02:15:24;;;;;;;7.78;1.73;;;;;;;17.73;100.00;99229.44;10464544;28;20049;-87
2023/11/26 02:20:48;;;;;;;5.35;1.48;;;;;;;17.48;100.00;99238.34;10439138;28;20064;-86
2023/11/26 02:26:13;;;;;;;5.95;1.45;;;;;;;17.79;100.00;99258.56;10442282;28;20072;-88
2023/11/26 02:31:36;;;;;;;5.97;1.73;;;;;;;17.75;100.00;99232.94;10455759;28;20041;-88
2023/11/26 02:37:00;;;;;;;5.93;2.00;;;;;;;17.86;100.00;99284.97;10420246;28;20108;-87
2023/11/26 02:42:24;;;;;;;9.50;2.38;;;;;;;18.08;100.00;99303.72;10430362;28;20579;-87
2023/11/26 02:47:48;;;;;;;7.05;1.45;;;;;;;18.21;100.00;99285.44;10422077;28;20045;-88
2023/11/26 02:53:11;;;;;;;7.07;1.58;;;;;;;18.29;100.00;99296.69;10433453;28;20060;-88
2023/11/26 02:58:36;;;;;;;8.32;1.50;;;;;;;18.50;100.00;99278.94;10440463;28;20056;-87
2023/11/26 03:04:00;;;;;;;9.82;2.17;;;;;;;18.60;100.00;99283.00;10453117;28;20505;-87
2023/11/26 03:12:56;;;;;;;8.93;1.92;;;;;;;18.44;100.00;99300.56;10450769;28;20708;-87
2023/11/26 03:15:27;;;;;;;9.23;1.70;;;;;;;18.54;100.00;99324.16;10439832;28;20771;-88
2023/11/26 03:20:52;;;;;;;11.32;1.80;;;;;;;18.39;100.00;99310.53;10461613;28;20517;-87
2023/11/26 03:26:16;;;;;;;5.13;1.60;;;;;;;18.03;100.00;99343.09;10448500;28;20128;-87
2023/11/26 03:31:44;;;;;;;9.68;2.00;;;;;;;17.78;100.00;99368.97;10452603;28;20059;-86
2023/11/26 03:37:08;;;;;;;8.15;2.00;;;;;;;17.69;100.00;99379.97;10448669;28;20553;-86
2023/11/26 03:42:31;;;;;;;12.23;1.80;;;;;;;17.71;100.00;99383.47;10450388;28;20116;-86
2023/11/26 03:47:56;;;;;;;11.73;2.53;;;;;;;17.61;100.00;99387.34;10445015;28;20126;-85
2023/11/26 03:53:19;;;;;;;8.43;1.95;;;;;;;17.80;100.00;99401.78;10451294;28;20432;-85
2023/11/26 03:58:42;;;;;;;10.38;1.60;;;;;;;17.91;100.00;99418.31;10451057;28;20049;-86
2023/11/26 04:04:08;;;;;;;18.70;2.60;;;;;;;17.96;100.00;99443.06;10446006;28;20057;-86
2023/11/26 04:09:33;;;;;;;17.10;2.35;;;;;;;18.12;100.00;99470.94;10439528;28;20501;-86
2023/11/26 04:14:58;;;;;;;17.85;3.10;;;;;;;18.01;100.00;99474.94;10443233;28;20052;-87
2023/11/26 04:20:23;;;;;;;16.45;2.53;;;;;;;17.87;100.00;99513.66;10420832;28;20048;-88
2023/11/26 04:25:46;;;;;;;9.20;2.35;;;;;;;17.93;100.00;99520.59;10435845;28;20095;-88
2023/11/26 04:31:09;;;;;;;9.25;2.10;;;;;;;17.87;100.00;99536.81;10441370;28;20098;-87
2023/11/26 04:36:34;;;;;;;13.05;2.13;;;;;;;17.91;100.00;99562.50;10441751;28;20057;-87
2023/11/26 04:41:57;;;;;;;14.98;2.88;;;;;;;18.05;100.00;99562.88;10444381;28;20051;-87
2023/11/26 04:47:21;;;;;;;11.15;2.25;;;;;;;17.98;100.00;99581.88;10442688;28;20132;-87
2023/11/26 04:52:45;;;;;;;9.02;1.80;;;;;;;17.87;100.00;99598.22;10475524;28;20590;-88
2023/11/26 04:58:09;;;;;;;8.80;1.83;;;;;;;17.72;100.00;99623.59;10457777;28;20508;-86
2023/11/26 05:03:33;;;;;;;10.85;2.28;;;;;;;17.56;100.00;99661.47;10458553;28;20053;-86
2023/11/26 05:48:35;;;;;;;10.63;2.63;;;;;;;16.74;100.00;99761.56;10594346;27;2189867;-88
2023/11/26 05:53:58;;;;;;;8.73;1.98;;;;;;;17.30;100.00;99785.84;10624996;27;20050;-86
2023/11/26 05:59:20;;;;;;;8.27;1.63;;;;;;;17.81;100.00;99785.31;10637896;27;20051;-88
2023/11/26 06:04:44;;;;;;;14.77;1.77;;;;;;;18.19;100.00;99795.69;10634125;27;20051;-87
2023/11/26 06:10:08;;;;;;;8.25;1.67;;;;;;;18.45;100.00;99794.00;10631929;27;20096;-88
2023/11/26 06:15:31;;;;;;;9.20;1.70;;;;;;;18.62;100.00;99807.75;10624073;27;20046;-90
2023/11/26 06:20:57;;;;;;;12.57;1.67;;;;;;;18.56;100.00;99814.16;10620680;27;20051;-88
2023/11/26 06:26:21;;;;;;;10.88;1.70;;;;;;;18.92;96.52;99844.16;10638399;27;20742;-88
2023/11/26 06:31:44;;;;;;;12.35;2.08;;;;;;;19.05;95.47;99864.22;10638583;27;20046;-87
2023/11/26 06:37:08;;;;;;;11.68;1.83;;;;;;;19.77;89.44;99878.69;10636118;27;20043;-89
2023/11/26 06:42:30;;;;;;;9.00;2.00;;;;;;;19.72;85.67;99894.06;10637379;27;20091;-89
2023/11/26 06:47:53;;;;;;;4.97;1.70;;;;;;;19.71;83.61;99902.13;10621863;27;20507;-88
2023/11/26 06:53:17;;;;;;;7.90;1.85;;;;;;;19.17;89.02;99916.44;10596944;27;20051;-87
2023/11/26 06:58:39;;;;;;;11.40;2.25;;;;;;;22.24;60.25;99901.69;10589030;27;20762;-88
2023/11/26 07:04:02;;;;;;;7.53;1.73;;;;;;;23.33;50.94;99919.72;10602866;27;20092;-87
2023/11/26 07:09:25;;;;;;;11.55;2.00;;;;;;;25.66;45.47;99949.22;10600643;27;20051;-90
2023/11/26 07:14:50;;;;;;;6.50;1.85;;;;;;;26.79;43.08;99963.88;10605785;27;20039;-89
2023/11/26 07:20:16;;;;;;;4.85;1.42;;;;;;;26.44;44.27;99985.06;10597633;27;20050;-89
2023/11/26 07:25:40;;;;;;;9.20;1.90;;;;;;;27.94;41.07;99998.75;10591293;27;20059;-88
2023/11/26 07:31:02;;;;;;;4.15;1.23;;;;;;;26.37;42.33;99994.53;10587008;27;20047;-88
2023/11/26 07:36:25;;;;;;;13.00;1.45;;;;;;;26.86;42.16;100001.31;10599629;27;20073;-89
2023/11/26 07:41:49;;;;;;;8.13;1.70;;;;;;;27.90;38.59;100014.34;10597595;27;20047;-86
2023/11/26 07:47:12;;;;;;;5.72;1.75;;;;;;;28.47;37.41;100014.06;10547240;28;20140;-88
2023/11/26 07:52:37;;;;;;;8.88;1.48;;;;;;;29.05;35.97;100018.94;10537735;28;20051;-87
2023/11/26 07:58:02;;;;;;;2.72;0.95;;;;;;;25.65;39.24;100034.00;10566101;28;20117;-88
2023/11/26 08:03:26;;;;;;;4.38;1.05;;;;;;;26.94;37.19;100023.41;10571909;28;20057;-89
2023/11/26 08:08:49;;;;;;;9.85;1.63;;;;;;;27.45;35.53;100026.41;10524653;28;20048;-85
2023/11/26 08:14:15;;;;;;;4.03;1.27;;;;;;;27.92;35.03;100030.53;10559779;28;20048;-85
2023/11/26 08:19:40;;;;;;;2.97;1.00;;;;;;;28.57;33.81;100030.56;10568620;28;20054;-84
2023/11/26 08:25:06;;;;;;;5.50;1.38;;;;;;;29.24;33.36;100064.69;10570369;28;20058;-87
2023/11/26 08:30:41;;;;;;;6.40;1.35;;;;;;;30.67;31.47;100079.22;10573640;28;20886;-85
2023/11/26 08:36:04;;;;;;;5.70;1.45;;;;;;;28.04;32.39;100062.25;10572428;28;20143;-86
2023/11/26 08:41:29;;;;;;;9.95;1.52;;;;;;;28.17;33.59;100095.78;10554108;27;20050;-84
2023/11/26 08:46:53;;;;;;;7.45;1.40;;;;;;;27.94;35.44;100091.88;10597089;27;20054;-83
2023/11/26 08:52:15;;;;;;;5.20;1.30;;;;;;;28.14;35.11;100099.59;10609719;27;20043;-84
2023/11/26 08:57:40;;;;;;;6.05;1.65;;;;;;;25.21;39.46;100095.94;10597710;27;20070;-88
2023/11/26 09:03:04;;;;;;;5.75;1.17;;;;;;;25.40;39.84;100103.91;10600238;27;20039;-86
2023/11/26 09:08:26;;;;;;;6.38;1.33;;;;;;;27.33;35.90;100104.00;10601788;27;20072;-86
2023/11/26 09:13:51;;;;;;;5.45;1.48;;;;;;;26.38;38.19;100115.38;10568835;27;20051;-88
2023/11/26 09:19:15;;;;;;;3.35;1.00;;;;;;;27.10;35.27;100125.41;10568521;27;20051;-88
2023/11/26 09:24:38;;;;;;;5.30;1.10;;;;;;;26.39;36.08;100114.41;10573449;27;20055;-89
2023/11/26 09:30:00;;;;;;;6.22;1.10;;;;;;;25.73;36.49;100114.69;10570298;27;20047;-90
2023/11/26 09:35:24;;;;;;;4.45;1.00;;;;;;;26.68;34.02;100118.94;10562434;28;20050;-90
2023/11/26 09:40:47;;;;;;;4.10;1.08;;;;;;;25.92;34.79;100128.88;10548136;28;20701;-90
2023/11/26 09:46:09;;;;;;;4.18;0.90;;;;;;;24.59;36.43;100146.06;10547052;28;20066;-92
2023/11/26 09:51:37;;;;;;;5.32;1.38;;;;;;;23.76;36.61;100126.88;10586097;28;20051;-89
2023/11/26 09:57:00;;;;;;;4.18;1.35;;;;;;;23.38;37.18;100142.16;10561183;28;20134;-89
2023/11/26 10:02:22;;;;;;;5.15;1.20;;;;;;;22.73;38.82;100131.69;10542346;28;20133;-90
2023/11/26 10:07:52;;;;;;;4.82;1.08;;;;;;;23.70;37.94;100118.19;10560407;28;20051;-90
2023/11/26 10:13:15;;;;;;;5.18;1.42;;;;;;;22.33;40.69;100145.09;10584055;28;20120;-90
2023/11/26 10:18:41;;;;;;;8.80;2.40;;;;;;;23.80;39.72;100139.25;10600877;28;20071;-89
2023/11/26 10:24:19;;;;;;;5.80;1.35;;;;;;;22.74;41.72;100154.97;10603481;27;20061;-90
2023/11/26 10:29:42;;;;;;;;;;;;;;;25.49;38.21;100159.28;10589974;27;20138;-91
2023/11/26 10:35:06;;;;;;;5.32;1.48;;;;;;;25.57;36.01;100162.44;10568993;28;19947;-91
2023/11/26 10:40:30;;;;;;;6.60;1.63;;;;;;;26.73;33.97;100175.53;10553681;27;20053;-92
2023/11/26 10:45:53;;;;;;;14.30;1.98;;;;;;;26.62;34.32;100151.81;10582172;27;20500;-91
2023/11/26 10:51:20;;;;;;;6.95;1.70;;;;;;;25.24;35.79;100157.06;10581981;27;20142;-92
2023/11/26 10:56:49;;;;;;;12.63;2.03;;;;;;;22.89;38.58;100140.84;10574243;27;20056;-92
2023/11/26 11:02:15;;;;;;;12.63;1.67;;;;;;;21.03;41.51;100170.81;10570622;28;20387;-88
2023/11/26 11:07:38;;;;;;;8.82;2.30;;;;;;;20.41;42.73;100167.69;10552705;28;20148;-88
2023/11/26 11:13:15;;;;;;;17.83;2.72;;;;;;;20.76;41.83;100178.06;10574239;27;20509;-91
2023/11/26 11:18:43;;;;;;;15.45;2.50;;;;;;;21.62;40.50;100189.19;10566718;28;20055;-90
2023/11/26 11:24:19;;;;;;;9.10;2.08;;;;;;;22.66;38.80;100166.03;10582010;27;20048;-88
2023/11/26 11:29:43;;;;;;;11.38;1.80;;;;;;;23.67;37.96;100156.97;10580843;27;20043;-85
2023/11/26 11:35:41;;;;;;;10.77;1.95;;;;;;;22.79;38.36;100174.50;10587730;27;20564;-85
2023/11/26 11:46:49;;;;;;;13.32;2.42;;;;;;;20.42;41.29;100178.34;10590156;27;20043;-88
2023/11/26 11:52:13;;;;;;;7.80;1.70;;;;;;;20.06;42.13;100196.50;10604658;27;20064;-88
2023/11/26 11:57:48;;;;;;;8.35;1.85;;;;;;;19.82;42.28;100199.97;10598559;27;20050;-87
2023/11/26 12:03:18;;;;;;;10.32;1.83;;;;;;;20.00;41.28;100206.56;10599224;27;20251;-82
2023/11/26 12:08:41;;;;;;;10.95;1.75;;;;;;;20.40;41.10;100217.75;10599640;27;20042;-85
2023/11/26 12:14:03;;;;;;;9.63;2.15;;;;;;;19.96;43.22;100229.00;10598060;27;20070;-88
2023/11/26 12:19:28;;;;;;;15.75;3.10;;;;;;;19.51;45.98;100245.53;10616492;27;20046;-85
2023/11/26 12:25:05;;;;;;;14.27;2.60;;;;;;;19.24;47.59;100252.53;10598496;27;20064;-88
2023/11/26 12:30:27;;;;;;;10.07;2.35;;;;;;;19.39;48.62;100261.94;10587345;27;20042;-80
2023/11/26 12:35:52;;;;;;;10.50;2.08;;;;;;;19.75;47.17;100279.66;10593881;27;20116;-81
2023/11/26 12:41:14;;;;;;;16.50;3.42;;;;;;;19.46;49.17;100301.91;10600402;27;20461;-85
2023/11/26 12:46:37;;;;;;;7.63;2.08;;;;;;;19.33;50.92;100321.00;10602619;27;20051;-83
2023/11/26 12:52:00;;;;;;;14.80;3.60;;;;;;;18.98;52.72;100328.16;10600243;27;20051;-80
2023/11/26 12:57:23;;;;;;;7.20;2.05;;;;;;;18.69;53.03;100336.91;10597412;27;20051;-83
2023/11/26 13:02:48;;;;;;;12.38;2.50;;;;;;;18.26;54.51;100354.81;10590371;27;20039;-80
2023/11/26 13:08:22;;;;;;;9.20;2.40;;;;;;;18.27;54.74;100335.22;10581968;27;20134;-84
2023/11/26 13:13:44;;;;;;;8.20;1.52;;;;;;;18.24;53.71;100352.22;10615819;27;20134;-83
2023/11/26 13:19:07;;;;;;;6.13;1.67;;;;;;;18.26;52.90;100361.06;10590539;27;20067;-86
2023/11/26 13:24:31;;;;;;;10.75;3.00;;;;;;;18.22;53.69;100383.41;10574052;27;20051;-82
2023/11/26 13:29:53;;;;;;;13.07;4.25;;;;;;;17.79;60.41;100425.25;10575255;27;20071;-83
2023/11/26 13:35:15;;;;;;;18.98;6.72;;;;;;;17.57;62.89;100442.56;10595252;27;20039;-79
2023/11/26 13:40:41;;;;;;;7.50;2.10;;;;;;;17.74;57.73;100467.19;10587826;28;20051;-81
2023/11/26 13:46:03;;;;;;;4.32;1.10;;;;;;;17.68;56.60;100478.00;10587215;28;20108;-81
2023/11/26 13:51:26;;;;;;;5.18;0.90;;;;;;;17.46;57.07;100485.44;10588331;28;20138;-89
2023/11/26 13:56:50;;;;;;;4.60;1.45;;;;;;;17.53;57.96;100488.00;10602436;27;20055;-80
2023/11/26 14:02:13;;;;;;;5.30;1.45;;;;;;;17.52;56.72;100485.38;10602800;27;20035;-84
2023/11/26 14:07:37;;;;;;;3.95;1.17;;;;;;;17.46;53.80;100499.69;10604779;27;20062;-84
2023/11/26 14:13:02;;;;;;;4.93;1.35;;;;;;;17.33;54.06;100507.91;10595407;27;20039;-86
2023/11/26 14:18:25;;;;;;;3.20;1.52;;;;;;;17.26;54.72;100507.16;10598360;27;20049;-84
2023/11/26 14:23:47;;;;;;;5.82;1.40;;;;;;;17.26;56.57;100522.28;10603185;27;20053;-88
2023/11/26 14:29:11;;;;;;;5.32;1.25;;;;;;;17.09;57.15;100527.84;10608946;27;20437;-88
2023/11/26 14:34:34;;;;;;;5.32;1.52;;;;;;;16.98;58.12;100516.47;10597747;27;20069;-88
2023/11/26 14:39:56;;;;;;;4.47;1.00;;;;;;;16.65;60.35;100525.81;10606816;27;20035;-81
2023/11/26 14:45:21;;;;;;;6.03;1.00;;;;;;;16.37;60.66;100553.66;10587249;27;20484;-82
2023/11/26 14:50:43;;;;;;;8.40;2.42;;;;;;;16.55;58.20;100554.31;10608360;27;20047;-86
2023/11/26 14:56:08;;;;;;;6.38;1.50;;;;;;;16.63;56.79;100580.91;10566939;28;20067;-82
2023/11/26 15:01:32;;;;;;;7.10;1.92;;;;;;;16.40;55.03;100591.81;10608209;27;20048;-84
2023/11/26 15:06:55;;;;;;;4.32;2.58;;;;;;;16.21;56.69;100593.78;10608716;27;20139;-85
2023/11/26 15:12:17;;;;;;;6.28;3.72;;;;;;;16.18;59.69;100614.25;10608114;27;20047;-88
2023/11/26 15:17:41;;;;;;;4.15;1.02;;;;;;;16.27;61.85;100624.81;10609727;27;20043;-86
2023/11/26 15:23:04;;;;;;;3.03;1.52;;;;;;;16.00;63.99;100625.06;10609265;27;20055;-88
2023/11/26 15:28:26;;;;;;;8.15;3.55;;;;;;;15.64;65.85;100620.91;10607370;27;20453;-86
2023/11/26 15:33:50;;;;;;;4.43;1.00;;;;;;;15.58;64.83;100619.19;10586367;27;20046;-84
2023/11/26 15:39:16;;;;;;;5.80;1.35;;;;;;;15.59;65.68;100641.34;10577409;27;20051;-85
2023/11/26 15:44:39;;;;;;;8.23;2.13;;;;;;;15.58;65.59;100643.13;10586887;27;20051;-80
2023/11/26 15:50:03;;;;;;;5.53;2.03;;;;;;;15.67;65.38;100644.84;10596282;27;20043;-83
2023/11/26 15:55:25;;;;;;;2.85;1.05;;;;;;;15.40;66.81;100621.94;10599991;27;20043;-82
2023/11/26 16:00:48;;;;;;;6.43;1.25;;;;;;;15.25;68.85;100636.19;10594093;27;20043;-82
2023/11/26 16:06:13;;;;;;;5.88;1.00;;;;;;;15.13;68.11;100630.94;10604281;27;20055;-82
2023/11/26 16:11:35;;;;;;;17.42;9.07;;;;;;;14.99;68.95;100662.03;10599463;27;20109;-84
2023/11/26 16:16:58;;;;;;;12.93;3.15;;;;;;;15.29;66.06;100653.94;10581404;27;20043;-81
2023/11/26 16:22:25;;;;;;;8.70;1.80;;;;;;;14.86;81.68;100629.31;10564028;28;20535;-84
2023/11/26 16:27:48;;;;;;;7.50;3.53;;;;;;;14.46;88.67;100654.22;10599719;27;20042;-85
2023/11/26 16:33:11;;;;;;;3.72;1.50;;;;;;;14.42;88.51;100671.06;10579229;27;20051;-83
2023/11/26 16:38:36;;;;;;;3.95;0.95;;;;;;;14.32;86.98;100673.69;10581985;27;20052;-85
2023/11/26 16:44:01;;;;;;;2.85;1.23;;;;;;;14.40;84.09;100697.63;10582316;27;20046;-83
2023/11/26 16:49:23;;;;;;;7.53;1.38;;;;;;;14.39;81.15;100689.63;10595559;27;20095;-87
2023/11/26 16:54:47;;;;;;;4.35;1.17;;;;;;;14.28;80.11;100695.81;10578713;27;20043;-87
2023/11/26 17:00:12;;;;;;;8.80;3.85;;;;;;;14.47;73.42;100717.97;10594781;27;20070;-87
2023/11/26 17:05:34;;;;;;;5.90;2.08;;;;;;;14.44;73.25;100731.25;10594464;27;20043;-88
2023/11/26 17:10:59;;;;;;;4.18;1.60;;;;;;;14.28;73.61;100729.47;10582517;27;20046;-82
2023/11/26 17:16:21;;;;;;;9.45;3.47;;;;;;;14.28;72.61;100743.63;10581545;27;20092;-83
2023/11/26 17:21:45;;;;;;;7.68;2.88;;;;;;;14.24;73.29;100725.91;10593173;27;20046;-81
2023/11/26 17:27:13;;;;;;;6.78;3.20;;;;;;;14.40;70.96;100749.84;10589752;27;20052;-80
2023/11/26 17:32:37;;;;;;;7.55;2.03;;;;;;;14.57;66.05;100756.06;10581900;27;20131;-80
2023/11/26 17:38:00;;;;;;;7.63;3.15;;;;;;;14.49;64.32;100776.41;10569413;27;20051;-86
2023/11/26 17:43:24;;;;;;;9.35;1.80;;;;;;;14.50;63.12;100778.19;10584291;28;20050;-83
2023/11/26 17:48:46;;;;;;;3.83;1.40;;;;;;;14.45;63.43;100795.88;10595537;28;20078;-84
2023/11/26 17:54:09;;;;;;;11.43;4.03;;;;;;;14.75;62.74;100803.84;10585796;28;20051;-82
2023/11/26 17:59:33;;;;;;;13.00;2.67;;;;;;;15.05;61.25;100819.75;10586034;28;20055;-80
2023/11/26 18:04:55;;;;;;;9.18;3.58;;;;;;;14.58;65.52;100818.91;10589144;28;20115;-80
2023/11/26 18:10:17;;;;;;;9.98;4.47;;;;;;;14.40;65.28;100826.88;10594831;28;20074;-79
2023/11/26 18:15:41;;;;;;;6.53;1.83;;;;;;;14.39;64.15;100835.72;10586306;28;20138;-82
2023/11/26 18:21:04;;;;;;;7.47;2.45;;;;;;;14.52;63.93;100843.69;10581549;28;20092;-84
2023/11/26 18:26:26;;;;;;;7.38;1.73;;;;;;;14.48;65.22;100855.22;10574217;28;20542;-79
2023/11/26 18:31:50;;;;;;;11.98;2.38;;;;;;;14.24;67.89;100857.81;10593879;28;20039;-83
2023/11/26 18:37:12;;;;;;;11.65;2.50;;;;;;;14.27;67.53;100852.50;10565854;28;20057;-82
2023/11/26 18:42:35;;;;;;;7.82;1.60;;;;;;;14.24;64.62;100863.97;10569701;28;20492;-85
2023/11/26 18:47:59;;;;;;;9.85;2.22;;;;;;;14.23;63.25;100867.53;10583277;27;20051;-86
2023/11/26 18:53:21;;;;;;;6.40;2.00;;;;;;;14.15;62.60;100850.69;10603410;27;20047;-85
2023/11/26 18:58:43;;;;;;;11.35;1.83;;;;;;;14.20;61.13;100854.25;10611820;27;20491;-82
2023/11/26 19:04:07;;;;;;;9.00;1.50;;;;;;;14.19;60.39;100855.13;10610330;27;20047;-83
2023/11/26 19:09:30;;;;;;;7.80;1.98;;;;;;;14.25;59.59;100854.25;10570509;28;20079;-81
2023/11/26 19:14:55;;;;;;;8.20;1.92;;;;;;;14.34;57.67;100859.59;10564473;27;20048;-82
2023/11/26 19:20:19;;;;;;;9.10;2.97;;;;;;;14.39;55.19;100862.28;10565503;27;20050;-82
2023/11/26 19:25:41;;;;;;;5.90;2.25;;;;;;;14.61;53.54;100883.56;10570909;27;20067;-81
2023/11/26 19:31:05;;;;;;;5.95;1.70;;;;;;;14.66;53.31;100894.19;10581906;27;20480;-83
2023/11/26 19:36:29;;;;;;;8.50;1.77;;;;;;;14.74;52.87;100905.72;10582257;27;20075;-84
2023/11/26 19:41:51;;;;;;;7.63;1.65;;;;;;;14.77;53.05;100912.81;10609642;27;20035;-87
2023/11/26 19:47:14;;;;;;;7.28;1.30;;;;;;;14.52;54.92;100903.91;10572537;27;20140;-85
2023/11/26 19:52:38;;;;;;;4.00;1.45;;;;;;;14.44;56.42;100914.50;10591198;27;20066;-86
2023/11/26 19:58:00;;;;;;;9.98;2.05;;;;;;;14.54;56.17;100910.13;10603482;27;20043;-79
2023/11/26 20:03:24;;;;;;;6.63;1.67;;;;;;;14.66;56.20;100920.75;10591942;27;20043;-83
2023/11/26 20:08:49;;;;;;;3.58;1.10;;;;;;;14.59;57.60;100924.28;10569678;28;20548;-82
2023/11/26 20:14:11;;;;;;;3.05;1.17;;;;;;;14.69;56.93;100931.41;10589379;27;20070;-83
2023/11/26 20:19:34;;;;;;;5.65;1.13;;;;;;;14.70;55.84;100927.88;10605287;27;20392;-81
2023/11/26 20:24:58;;;;;;;5.68;1.85;;;;;;;14.61;53.61;100936.72;10581942;27;20044;-81
2023/11/26 20:30:20;;;;;;;2.53;1.08;;;;;;;14.58;50.23;100939.34;10563605;27;20470;-81
2023/11/26 20:35:43;;;;;;;7.63;1.30;;;;;;;14.87;48.31;100957.13;10585638;27;20111;-81
2023/11/26 20:41:08;;;;;;;1.63;0.90;;;;;;;15.34;45.56;100959.78;10582604;27;20047;-81
2023/11/26 20:46:30;;;;;;;3.00;1.00;;;;;;;15.28;44.87;100966.00;10586560;27;20039;-82
2023/11/26 20:51:53;;;;;;;4.10;1.08;;;;;;;15.27;42.73;100968.66;10599805;27;20046;-82
2023/11/26 20:57:17;;;;;;;3.50;1.00;;;;;;;15.16;43.41;100972.19;10585311;27;20031;-82
2023/11/26 21:02:40;;;;;;;4.70;0.85;;;;;;;15.31;44.04;100989.94;10577147;27;20039;-80
2023/11/26 21:08:02;;;;;;;2.38;0.80;;;;;;;15.32;43.20;101002.34;10593387;27;20064;-81
2023/11/26 21:13:26;;;;;;;3.90;1.60;;;;;;;15.32;43.54;101013.00;10580793;27;20504;-81
2023/11/26 21:18:49;;;;;;;6.70;1.02;;;;;;;15.32;43.52;101020.97;10582188;27;20430;-81
2023/11/26 21:24:11;;;;;;;2.38;0.90;;;;;;;15.36;43.42;101044.00;10586521;27;20043;-81
2023/11/26 21:29:35;;;;;;;5.18;0.77;;;;;;;15.15;42.96;101041.34;10583678;27;20077;-81
2023/11/26 21:34:57;;;;;;;7.57;1.00;;;;;;;14.87;43.09;101061.66;10572807;28;20112;-80
2023/11/26 21:40:20;;;;;;;4.70;0.77;;;;;;;14.85;41.90;101046.59;10600143;27;20561;-81
2023/11/26 21:45:44;;;;;;;3.90;0.90;;;;;;;14.67;41.51;101040.34;10568247;28;20035;-81
2023/11/26 21:51:07;;;;;;;7.07;1.80;;;;;;;14.60;42.78;101033.25;10567831;28;20079;-81
2023/11/26 21:56:30;;;;;;;5.53;0.90;;;;;;;14.77;44.00;101033.28;10560944;28;20047;-82
2023/11/26 22:01:54;;;;;;;4.88;1.15;;;;;;;14.93;44.44;101045.72;10581925;27;20099;-81
2023/11/26 22:07:18;;;;;;;4.78;1.20;;;;;;;15.03;44.28;101044.84;10563715;28;20128;-81
2023/11/26 22:12:41;;;;;;;4.20;0.93;;;;;;;15.16;44.39;101067.06;10588911;28;20049;-81
2023/11/26 22:18:05;;;;;;;4.45;1.00;;;;;;;15.29;50.39;101081.28;10581643;28;20042;-82
2023/11/26 22:23:29;;;;;;;3.35;1.00;;;;;;;14.56;76.98;101097.00;10587277;27;20047;-81
2023/11/26 22:28:52;;;;;;;2.50;0.88;;;;;;;13.47;96.58;101105.91;10609861;27;20510;-81
2023/11/26 22:34:17;;;;;;;3.92;1.25;;;;;;;13.05;100.00;101084.25;10598355;27;20137;-82
2023/11/26 22:39:40;;;;;;;10.35;1.27;;;;;;;12.90;100.00;101086.72;10592633;27;20487;-81
2023/11/26 22:45:02;;;;;;;3.65;0.90;;;;;;;13.13;100.00;101085.25;10582655;27;20083;-81
2023/11/26 22:50:26;;;;;;;4.15;1.20;;;;;;;13.52;100.00;101096.22;10589453;27;20565;-82
2023/11/26 22:55:49;;;;;;;5.75;1.30;;;;;;;13.89;100.00;101101.84;10583306;27;20515;-82
2023/11/26 23:01:12;;;;;;;2.75;1.15;;;;;;;14.06;97.90;101133.81;10591788;27;20514;-81
2023/11/26 23:06:37;;;;;;;4.80;1.05;;;;;;;13.87;98.65;101148.72;10608394;27;20498;-81
2023/11/26 23:11:59;;;;;;;4.38;1.08;;;;;;;13.77;95.14;101130.97;10598584;27;20043;-81
2023/11/26 23:17:21;;;;;;;0.98;0.70;;;;;;;14.01;91.25;101148.81;10575808;27;20108;-81
2023/11/26 23:22:45;;;;;;;3.28;0.88;;;;;;;14.24;86.22;101139.28;10578552;27;20051;-81
2023/11/26 23:28:08;;;;;;;2.47;0.95;;;;;;;14.30;77.51;101149.94;10588426;27;20079;-82
2023/11/26 23:33:30;;;;;;;1.58;0.90;;;;;;;14.25;75.77;101165.81;10575903;27;20528;-81
2023/11/26 23:38:54;;;;;;;3.33;1.25;;;;;;;14.11;76.62;101151.56;10554315;27;20089;-81
2023/11/26 23:44:17;;;;;;;4.15;1.10;;;;;;;13.92;79.27;101141.66;10572457;27;20070;-82
2023/11/26 23:49:39;;;;;;;2.90;1.00;;;;;;;13.92;80.60;101137.25;10577028;27;20076;-82
2023/11/26 23:55:04;;;;;;;1.88;0.73;;;;;;;14.28;71.65;101131.34;10599315;27;20092;-82
